createdAt,value
2019-03-06T07:43:11.765Z,77.09
2019-03-06T07:46:55.551Z,77.19
2019-03-06T07:49:34.180Z,77.14
2019-03-06T07:52:12.685Z,77.22
2019-03-06T07:54:44.938Z,77.25
2019-03-06T07:57:14.781Z,77.33
2019-03-06T07:59:42.952Z,77.45
2019-03-06T08:02:15.020Z,77.40
2019-03-06T08:04:50.419Z,77.61
2019-03-06T08:07:18.280Z,77.89
2019-03-06T08:09:46.316Z,78.02
2019-03-06T08:12:34.047Z,78.02
2019-03-06T08:15:03.645Z,78.06
2019-03-06T08:17:51.348Z,77.96
2019-03-06T08:20:26.588Z,78.27
2019-03-06T08:22:58.585Z,78.37
2019-03-06T08:25:40.344Z,78.30
2019-03-06T08:28:08.394Z,78.76
2019-03-06T08:32:39.567Z,78.60
2019-03-06T08:35:11.676Z,78.54
2019-03-06T08:37:39.333Z,78.47
2019-03-06T08:40:08.726Z,78.44
2019-03-06T08:42:36.391Z,78.55
2019-03-06T08:45:05.978Z,78.45
2019-03-06T08:47:36.925Z,78.27
2019-03-06T08:50:07.640Z,78.28
2019-03-06T08:52:37.295Z,78.29
2019-03-06T08:55:13.059Z,78.21
2019-03-06T08:57:44.187Z,78.12
2019-03-06T09:00:19.211Z,78.15
2019-03-06T09:02:50.821Z,78.32
2019-03-06T09:05:20.318Z,78.11
2019-03-06T09:07:54.954Z,78.05
2019-03-06T09:10:26.463Z,77.89
2019-03-06T09:13:15.146Z,77.93
2019-03-06T09:16:02.838Z,77.69
2019-03-06T09:18:42.788Z,77.53
2019-03-06T09:21:22.876Z,77.71
2019-03-06T09:24:12.142Z,77.21
2019-03-06T09:26:42.852Z,77.28
2019-03-06T09:29:19.834Z,77.51
2019-03-06T09:31:53.592Z,77.04
2019-03-06T09:34:37.988Z,76.69
2019-03-06T09:37:11.828Z,76.45
2019-03-06T09:39:55.652Z,75.89
2019-03-06T09:42:35.040Z,76.08
2019-03-06T09:45:10.557Z,76.10
2019-03-06T09:47:46.607Z,76.00
2019-03-06T09:50:19.727Z,75.85
2019-03-06T09:53:05.294Z,75.80
2019-03-06T09:55:35.792Z,75.76
2019-03-06T09:58:11.550Z,75.78
2019-03-06T10:00:50.812Z,75.59
2019-03-06T10:03:22.532Z,75.20
2019-03-06T10:06:10.192Z,75.26
2019-03-06T10:08:49.211Z,75.17
2019-03-06T10:11:39.894Z,74.80
2019-03-06T10:14:21.871Z,74.82
2019-03-06T10:16:55.001Z,74.63
2019-03-06T10:19:24.885Z,74.70
2019-03-06T10:21:54.525Z,74.47
2019-03-06T10:24:25.347Z,74.30
2019-03-06T10:26:54.351Z,74.11
2019-03-06T10:29:22.673Z,74.03
2019-03-06T10:31:51.491Z,74.19
2019-03-06T10:34:20.770Z,73.96
2019-03-06T10:36:48.764Z,73.91
2019-03-06T10:39:16.440Z,73.70
2019-03-06T10:41:44.205Z,73.54
2019-03-06T10:44:12.210Z,73.54
2019-03-06T10:46:39.987Z,73.48
2019-03-06T10:49:08.091Z,73.40
2019-03-06T10:51:35.795Z,73.23
2019-03-06T10:54:04.447Z,73.21
2019-03-06T10:56:32.403Z,72.87
2019-03-06T10:59:00.784Z,72.83
2019-03-06T11:01:28.766Z,72.73
2019-03-06T11:04:01.065Z,72.58
2019-03-06T11:06:28.768Z,72.52
2019-03-06T11:08:56.861Z,72.27
2019-03-06T11:11:24.565Z,72.02
2019-03-06T11:13:52.966Z,71.70
2019-03-06T11:16:25.475Z,71.31
2019-03-06T11:18:53.864Z,71.14
2019-03-06T11:21:21.886Z,70.78
2019-03-06T11:23:49.730Z,70.54
2019-03-06T11:26:19.228Z,70.45
2019-03-06T11:28:47.175Z,70.43
2019-03-06T11:31:15.228Z,70.36
2019-03-06T11:33:47.960Z,70.42
2019-03-06T11:36:19.048Z,70.79
2019-03-06T11:38:51.992Z,70.46
2019-03-06T11:41:23.383Z,70.30
2019-03-06T11:43:52.339Z,70.37
2019-03-06T11:46:32.991Z,70.14
2019-03-06T11:49:01.677Z,70.26
2019-03-06T11:51:31.234Z,70.20
2019-03-06T11:54:02.297Z,70.08
2019-03-06T11:56:34.906Z,69.65
2019-03-06T12:01:54.091Z,69.17
2019-03-06T12:04:23.191Z,68.75
2019-03-06T12:06:53.309Z,68.36
2019-03-06T12:09:31.720Z,68.60
2019-03-06T12:12:00.282Z,68.30
2019-03-06T12:14:32.684Z,68.32
2019-03-06T12:17:20.006Z,68.31
2019-03-06T12:19:50.549Z,68.36
2019-03-06T12:22:20.444Z,68.36
2019-03-06T12:24:55.751Z,68.30
2019-03-06T12:27:21.409Z,68.21
2019-03-06T12:29:50.915Z,68.28
2019-03-06T12:32:18.758Z,68.24
2019-03-06T12:34:46.562Z,68.48
2019-03-06T12:37:14.373Z,68.54
2019-03-06T12:39:42.234Z,68.30
2019-03-06T12:42:14.258Z,68.58
2019-03-06T12:44:40.171Z,68.60
2019-03-06T12:47:07.941Z,68.59
2019-03-06T12:49:35.703Z,68.64
2019-03-06T12:52:03.684Z,68.65
2019-03-06T12:54:31.459Z,68.66
2019-03-06T12:56:59.523Z,68.66
2019-03-06T12:59:27.457Z,68.61
2019-03-06T13:01:55.540Z,68.56
2019-03-06T13:04:23.211Z,68.49
2019-03-06T13:06:51.179Z,68.36
2019-03-06T13:09:19.169Z,68.51
2019-03-06T13:11:46.886Z,68.42
2019-03-06T13:14:14.598Z,68.30
2019-03-06T13:16:42.557Z,68.30
2019-03-06T13:19:10.668Z,68.34
2019-03-06T13:21:38.641Z,68.58
2019-03-06T13:24:06.381Z,68.33
2019-03-06T13:26:34.364Z,68.15
2019-03-06T13:29:01.986Z,68.06
2019-03-06T13:31:29.997Z,68.02
2019-03-06T13:33:59.328Z,68.06
2019-03-06T13:36:26.944Z,68.06
2019-03-06T13:39:03.048Z,68.14
2019-03-06T13:41:23.908Z,68.16
2019-03-06T13:43:51.601Z,68.25
2019-03-06T13:46:19.667Z,68.17
2019-03-06T13:48:47.936Z,68.25
2019-03-06T13:51:15.564Z,68.28
2019-03-06T13:53:43.478Z,68.24
2019-03-06T13:56:11.190Z,68.09
2019-03-06T13:58:39.206Z,68.05
2019-03-06T14:01:07.984Z,67.88
2019-03-06T14:03:35.664Z,67.70
2019-03-06T14:06:03.308Z,67.50
2019-03-06T14:08:31.049Z,67.34
2019-03-06T14:10:58.937Z,66.87
2019-03-06T14:13:26.919Z,66.40
2019-03-06T14:15:54.989Z,65.66
2019-03-06T14:18:22.801Z,65.70
2019-03-06T14:20:50.918Z,65.13
2019-03-06T14:23:18.677Z,64.95
2019-03-06T14:25:46.741Z,64.71
2019-03-06T14:28:15.892Z,64.67
2019-03-06T14:30:44.685Z,64.60
2019-03-06T14:33:14.327Z,64.19
2019-03-06T14:35:44.306Z,64.11
2019-03-06T14:38:14.117Z,64.32
2019-03-06T14:40:44.445Z,64.35
2019-03-06T14:43:12.211Z,64.35
2019-03-06T14:45:39.871Z,64.44
2019-03-06T14:48:09.961Z,64.34
2019-03-06T14:50:37.741Z,64.45
2019-03-06T14:53:10.882Z,64.09
2019-03-06T14:55:40.746Z,64.47
2019-03-06T14:58:08.507Z,64.42
2019-03-06T15:00:36.386Z,64.42
2019-03-06T15:03:07.600Z,64.47
2019-03-06T15:05:37.270Z,64.55
2019-03-06T15:08:06.352Z,64.81
2019-03-06T15:10:42.856Z,64.86
2019-03-06T15:13:08.131Z,65.28
2019-03-06T15:15:35.845Z,65.17
2019-03-06T15:18:10.334Z,65.16
2019-03-06T15:20:32.957Z,65.32
2019-03-06T15:23:02.745Z,65.57
2019-03-06T15:25:31.007Z,65.53
2019-03-06T15:27:59.294Z,65.73
2019-03-06T15:30:26.955Z,65.75
2019-03-06T15:32:55.015Z,65.81
2019-03-06T15:35:23.467Z,65.95
2019-03-06T15:37:51.611Z,65.97
2019-03-06T15:40:22.467Z,65.99
2019-03-06T15:42:50.471Z,65.95
2019-03-06T15:45:21.496Z,65.97
2019-03-06T15:47:49.590Z,66.15
2019-03-06T15:50:17.868Z,66.63
2019-03-06T15:52:46.045Z,67.03
2019-03-06T15:55:14.344Z,68.22
2019-03-06T15:57:42.891Z,67.95
2019-03-06T16:00:16.808Z,68.81
2019-03-06T16:02:44.722Z,69.66
2019-03-06T16:05:19.001Z,69.43
2019-03-06T16:07:46.832Z,69.78
2019-03-06T16:10:15.377Z,70.10
2019-03-06T16:12:43.681Z,70.24
2019-03-06T16:15:11.518Z,70.23
2019-03-06T16:17:39.462Z,70.18
2019-03-06T16:20:08.949Z,70.42
2019-03-06T16:22:36.631Z,70.27
2019-03-06T16:25:04.732Z,71.15
2019-03-06T16:27:32.507Z,70.87
2019-03-06T16:30:00.345Z,71.19
2019-03-06T16:32:28.290Z,71.30
2019-03-06T16:34:56.362Z,71.43
2019-03-06T16:37:24.034Z,71.96
2019-03-06T16:39:51.784Z,71.98
2019-03-06T16:42:19.459Z,72.88
2019-03-06T16:44:47.423Z,72.33
2019-03-06T16:47:15.090Z,72.32
2019-03-06T16:49:42.852Z,72.56
2019-03-06T16:52:11.443Z,72.52
2019-03-06T16:54:39.139Z,72.68
2019-03-06T16:57:07.623Z,72.69
2019-03-06T16:59:35.349Z,72.83
2019-03-06T17:02:03.652Z,73.51
2019-03-06T17:04:31.451Z,73.17
2019-03-06T17:07:01.940Z,72.91
2019-03-06T17:09:29.688Z,72.93
2019-03-06T17:11:57.368Z,73.03
2019-03-06T17:14:25.148Z,72.87
2019-03-06T17:16:52.835Z,72.88
2019-03-06T17:19:20.726Z,72.93
2019-03-06T17:21:48.797Z,72.97
2019-03-06T17:24:16.396Z,72.78
2019-03-06T17:26:44.081Z,72.69
2019-03-06T17:29:12.270Z,72.89
2019-03-06T17:31:40.263Z,73.18
2019-03-06T17:34:08.235Z,73.50
2019-03-06T17:36:36.142Z,73.78
2019-03-06T17:39:04.765Z,73.82
2019-03-06T17:41:32.533Z,74.06
2019-03-06T17:44:00.216Z,74.21
2019-03-06T17:46:28.301Z,74.68
2019-03-06T17:48:56.169Z,75.02
2019-03-06T17:51:24.333Z,75.21
2019-03-06T17:53:51.964Z,75.13
2019-03-06T17:56:19.692Z,75.58
2019-03-06T17:58:47.714Z,75.45
2019-03-06T18:01:16.977Z,75.74
2019-03-06T18:03:46.314Z,76.16
2019-03-06T18:06:14.413Z,76.33
2019-03-06T18:08:42.127Z,76.52
2019-03-06T18:11:09.829Z,76.92
2019-03-06T18:13:37.445Z,77.02
2019-03-06T18:16:05.460Z,76.97
2019-03-06T18:18:33.160Z,77.41
2019-03-06T18:21:01.091Z,77.15
2019-03-06T18:23:29.131Z,77.34
2019-03-06T18:25:56.877Z,77.18
2019-03-06T18:28:24.534Z,77.32
2019-03-06T18:30:52.560Z,77.32
2019-03-06T18:33:20.188Z,77.24
2019-03-06T18:35:48.091Z,77.18
2019-03-06T18:38:16.055Z,77.12
2019-03-06T18:40:44.349Z,77.23
2019-03-06T18:43:12.295Z,77.44
2019-03-06T18:45:41.479Z,77.85
2019-03-06T18:48:09.150Z,78.12
2019-03-06T18:50:36.877Z,77.88
2019-03-06T18:53:04.783Z,77.98
2019-03-06T18:55:32.778Z,77.88
2019-03-06T18:58:00.554Z,77.93
2019-03-06T19:00:29.224Z,78.02
2019-03-06T19:02:56.946Z,77.99
2019-03-06T19:05:24.626Z,77.98
2019-03-06T19:07:52.601Z,78.00
2019-03-06T19:10:21.002Z,77.97
2019-03-06T19:12:48.847Z,77.99
2019-03-06T19:15:18.130Z,77.76
2019-03-06T19:17:45.816Z,77.79
2019-03-06T19:20:14.931Z,77.63
2019-03-06T19:22:42.657Z,77.46
2019-03-06T19:25:11.894Z,77.45
2019-03-06T19:27:40.071Z,77.41
2019-03-06T19:30:09.663Z,77.25
2019-03-06T19:32:37.402Z,77.27
2019-03-06T19:35:06.053Z,77.40
2019-03-06T19:37:34.085Z,77.34
2019-03-06T19:42:08.682Z,77.44
2019-03-06T19:44:37.122Z,77.45
2019-03-06T19:47:05.653Z,77.40
2019-03-06T19:49:34.388Z,77.34
2019-03-06T19:52:02.811Z,77.32
2019-03-06T19:54:31.209Z,77.25
2019-03-06T19:56:59.938Z,77.03
2019-03-06T19:59:28.621Z,76.88
2019-03-06T20:01:57.413Z,76.91
2019-03-06T20:04:25.827Z,76.97
2019-03-06T20:06:54.392Z,77.04
2019-03-06T20:09:25.853Z,77.13
2019-03-06T20:11:54.820Z,77.06
2019-03-06T20:14:23.290Z,77.04
2019-03-06T20:16:51.708Z,76.91
2019-03-06T20:19:20.457Z,76.63
2019-03-06T20:21:49.137Z,76.47
2019-03-06T20:24:17.842Z,76.24
2019-03-06T20:26:46.325Z,76.03
2019-03-06T20:29:15.111Z,75.70
2019-03-06T20:31:43.516Z,75.65
2019-03-06T20:34:12.281Z,75.52
2019-03-06T20:36:40.688Z,75.44
2019-03-06T20:39:10.501Z,75.41
2019-03-06T20:41:39.345Z,75.61
2019-03-06T20:44:08.204Z,75.44
2019-03-06T20:46:36.902Z,75.36
2019-03-06T20:49:05.504Z,75.16
2019-03-06T20:51:33.912Z,74.94
2019-03-06T20:54:02.616Z,74.98
2019-03-06T20:56:31.001Z,74.95
2019-03-06T20:58:59.691Z,74.80
2019-03-06T21:01:28.349Z,74.81
2019-03-06T21:03:56.742Z,74.80
2019-03-06T21:06:33.201Z,74.75
2019-03-06T21:08:55.646Z,74.73
2019-03-06T21:11:24.089Z,74.67
2019-03-06T21:13:52.477Z,74.66
2019-03-06T21:16:21.383Z,74.57
2019-03-06T21:18:49.816Z,74.41
2019-03-06T21:21:18.226Z,74.16
2019-03-06T21:23:46.940Z,74.09
2019-03-06T21:26:15.326Z,74.04
2019-03-06T21:28:43.732Z,74.02
2019-03-06T21:31:12.126Z,73.96
2019-03-06T21:33:40.853Z,73.88
2019-03-06T21:36:09.540Z,73.75
2019-03-06T21:38:37.964Z,73.40
2019-03-06T21:41:06.350Z,73.48
2019-03-06T21:43:34.761Z,73.32
2019-03-06T21:46:03.160Z,73.17
2019-03-06T21:48:31.890Z,73.00
2019-03-06T21:51:00.288Z,72.93
2019-03-06T21:53:33.159Z,72.88
2019-03-06T21:56:01.987Z,72.70
2019-03-06T21:58:30.789Z,72.46
2019-03-06T22:00:59.579Z,72.37
2019-03-06T22:03:27.985Z,72.23
2019-03-06T22:05:59.420Z,72.16
2019-03-06T22:08:28.090Z,72.14
2019-03-06T22:10:56.776Z,72.13
2019-03-06T22:13:26.896Z,72.13
2019-03-06T22:15:55.275Z,72.13
2019-03-06T22:18:23.970Z,72.15
2019-03-06T22:20:52.662Z,72.13
2019-03-06T22:23:21.056Z,72.08
2019-03-06T22:25:49.535Z,72.07
2019-03-06T22:28:17.934Z,72.01
2019-03-06T22:30:49.636Z,71.78
2019-03-06T22:33:18.740Z,71.66
2019-03-06T22:35:47.436Z,71.56
2019-03-06T22:38:15.848Z,71.42
2019-03-06T22:40:44.696Z,71.37
2019-03-06T22:43:15.913Z,71.22
2019-03-06T22:45:44.635Z,71.25
2019-03-06T22:48:13.029Z,71.17
2019-03-06T22:50:41.698Z,71.07
2019-03-06T22:53:10.113Z,71.01
2019-03-06T22:55:38.885Z,70.88
2019-03-06T22:58:07.298Z,70.82
2019-03-06T23:00:45.757Z,70.74
2019-03-06T23:03:15.117Z,70.66
2019-03-06T23:05:43.847Z,70.62
2019-03-06T23:08:12.675Z,70.46
2019-03-06T23:10:41.173Z,70.28
2019-03-06T23:13:09.577Z,70.33
2019-03-06T23:15:37.965Z,70.29
2019-03-06T23:18:06.872Z,70.36
2019-03-06T23:20:35.626Z,70.43
2019-03-06T23:23:04.067Z,70.47
2019-03-06T23:25:32.584Z,70.49
2019-03-06T23:28:01.317Z,70.40
2019-03-06T23:30:32.683Z,70.32
2019-03-06T23:33:01.093Z,70.34
2019-03-06T23:35:29.501Z,70.33
2019-03-06T23:37:57.975Z,70.36
2019-03-06T23:40:26.382Z,70.36
2019-03-06T23:42:54.802Z,70.39
2019-03-06T23:45:23.508Z,70.39
2019-03-06T23:47:52.224Z,70.35
2019-03-06T23:50:20.705Z,70.24
2019-03-06T23:53:08.554Z,70.26
2019-03-06T23:55:37.240Z,70.25
2019-03-06T23:58:06.119Z,70.24
